Time;durP1;ratioP1;P1;durP2;ratioP2;P2;SDS_P1;SDS_P2;PMS_P1;PMS_P2;Temp;Humidity;BMP_temperature;BMP_pressure;BME280_temperature;BME280_humidity;BME280_pressure;Samples;Min_cycle;Max_cycle;Signal;HPM_P1;HPM_P2
2022/07/23 00:01:24;;;;;;;15.00;10.65;;;27.20;57.50;;;;;;5048653;28;20043;-61
2022/07/23 00:03:54;;;;;;;15.35;11.90;;;27.10;57.70;;;;;;5048992;28;20162;-60
2022/07/23 00:06:21;;;;;;;10.98;9.88;;;27.00;57.70;;;;;;5049366;28;20139;-60
2022/07/23 00:08:48;;;;;;;12.63;10.82;;;27.00;57.90;;;;;;5048919;28;20045;-61
2022/07/23 00:11:15;;;;;;;13.23;9.77;;;26.90;58.10;;;;;;5049096;28;20418;-60
2022/07/23 00:13:42;;;;;;;12.00;10.13;;;26.90;58.20;;;;;;5043514;28;20095;-61
2022/07/23 00:16:10;;;;;;;13.45;10.93;;;26.80;58.90;;;;;;5046697;28;20037;-61
2022/07/23 00:18:38;;;;;;;12.73;9.82;;;26.80;58.50;;;;;;5048708;28;20689;-60
2022/07/23 00:21:05;;;;;;;14.88;9.50;;;26.70;58.60;;;;;;5049054;28;20406;-61
2022/07/23 00:23:32;;;;;;;11.98;10.60;;;26.70;58.70;;;;;;5048351;28;20599;-61
2022/07/23 00:25:59;;;;;;;13.00;9.88;;;26.70;58.90;;;;;;5048893;28;20052;-60
2022/07/23 00:28:26;;;;;;;11.23;9.60;;;26.60;59.00;;;;;;5048918;28;20130;-61
2022/07/23 00:30:53;;;;;;;11.00;9.88;;;26.60;59.20;;;;;;5046622;28;20055;-60
2022/07/23 00:33:21;;;;;;;14.27;10.27;;;26.60;59.30;;;;;;5046972;28;20057;-61
2022/07/23 00:35:50;;;;;;;13.07;10.40;;;26.50;59.30;;;;;;5048849;28;20499;-63
2022/07/23 00:38:17;;;;;;;13.60;10.43;;;26.50;59.40;;;;;;5048072;28;20049;-61
2022/07/23 00:40:44;;;;;;;13.45;10.05;;;26.40;59.40;;;;;;5046856;28;20032;-61
2022/07/23 00:43:11;;;;;;;15.65;11.05;;;26.40;59.60;;;;;;5048406;28;20530;-61
2022/07/23 00:45:38;;;;;;;12.88;11.48;;;26.40;59.60;;;;;;5047943;28;20128;-61
2022/07/23 00:48:08;;;;;;;13.80;10.95;;;26.40;59.70;;;;;;5048339;28;20044;-61
2022/07/23 00:50:35;;;;;;;16.15;9.93;;;26.30;59.70;;;;;;5048261;28;20036;-60
2022/07/23 00:53:04;;;;;;;15.82;10.82;;;26.30;59.80;;;;;;5047964;28;20075;-61
2022/07/23 00:55:32;;;;;;;12.18;10.68;;;26.30;59.90;;;;;;5048040;28;20476;-61
2022/07/23 00:58:00;;;;;;;12.73;10.50;;;26.20;59.90;;;;;;5045272;28;20521;-61
2022/07/23 01:00:27;;;;;;;16.05;10.40;;;26.20;60.00;;;;;;5041722;28;20033;-61
2022/07/23 01:02:54;;;;;;;15.57;11.50;;;26.20;60.00;;;;;;5044458;28;20391;-61
2022/07/23 01:05:22;;;;;;;13.02;9.55;;;26.20;60.20;;;;;;5046702;28;20041;-61
2022/07/23 01:07:50;;;;;;;11.65;9.68;;;26.20;60.40;;;;;;5046686;28;20037;-61
2022/07/23 01:10:34;;;;;;;13.90;9.88;;;26.10;60.80;;;;;;5046252;28;20044;-61
2022/07/23 01:13:03;;;;;;;18.45;10.82;;;26.10;60.20;;;;;;5046655;28;20037;-61
2022/07/23 01:15:31;;;;;;;13.18;9.60;;;26.10;60.20;;;;;;5046202;28;20135;-61
2022/07/23 01:17:58;;;;;;;11.60;9.07;;;26.10;60.20;;;;;;5048182;28;20431;-60
2022/07/23 01:20:25;;;;;;;13.52;8.45;;;26.10;60.10;;;;;;5046717;28;20055;-60
2022/07/23 01:22:55;;;;;;;11.45;8.23;;;26.10;60.10;;;;;;5011783;28;20053;-60
2022/07/23 01:25:23;;;;;;;12.80;8.45;;;26.10;60.10;;;;;;5038455;28;20040;-60
2022/07/23 01:27:59;;;;;;;15.55;9.35;;;26.10;60.10;;;;;;5045952;28;20057;-61
2022/07/23 01:30:26;;;;;;;13.80;9.70;;;26.10;60.10;;;;;;5041407;28;20083;-62
2022/07/23 01:32:54;;;;;;;13.85;8.57;;;26.10;60.20;;;;;;5039030;28;20053;-61
2022/07/23 01:35:22;;;;;;;11.07;8.63;;;26.10;60.10;;;;;;5045920;28;20052;-62
2022/07/23 01:37:50;;;;;;;10.05;8.27;;;26.00;60.10;;;;;;5046216;28;20051;-62
2022/07/23 01:40:20;;;;;;;8.60;6.75;;;26.00;60.00;;;;;;5045811;28;20719;-61
2022/07/23 01:42:48;;;;;;;10.60;8.55;;;26.00;60.00;;;;;;5045649;28;20044;-63
2022/07/23 01:45:15;;;;;;;11.00;8.60;;;26.00;60.00;;;;;;5046091;28;20425;-62
2022/07/23 01:47:48;;;;;;;11.73;7.53;;;26.00;59.90;;;;;;5045652;28;20037;-62
2022/07/23 01:50:15;;;;;;;9.52;8.57;;;26.00;60.00;;;;;;5047369;28;20473;-62
2022/07/23 01:53:01;;;;;;;12.20;8.05;;;26.00;60.60;;;;;;5047124;28;20135;-63
2022/07/23 01:55:29;;;;;;;7.93;7.03;;;26.00;60.00;;;;;;5047032;28;20048;-63
2022/07/23 01:57:57;;;;;;;7.25;6.50;;;26.00;60.00;;;;;;5045144;28;20052;-62
2022/07/23 02:00:29;;;;;;;8.93;7.90;;;25.90;59.90;;;;;;5045750;28;20069;-62
2022/07/23 02:02:58;;;;;;;8.07;7.15;;;26.00;60.00;;;;;;5029076;28;20056;-62
2022/07/23 02:05:25;;;;;;;9.23;6.97;;;26.00;59.90;;;;;;5045662;28;20045;-61
2022/07/23 02:07:52;;;;;;;8.98;7.53;;;25.90;59.90;;;;;;5046758;28;20103;-61
2022/07/23 02:10:19;;;;;;;10.30;7.25;;;25.90;59.90;;;;;;5046465;28;20041;-61
2022/07/23 02:12:47;;;;;;;9.95;7.68;;;25.90;60.00;;;;;;5044616;28;20112;-61
2022/07/23 02:15:15;;;;;;;9.18;7.22;;;25.90;60.00;;;;;;5046889;28;20135;-61
2022/07/23 02:17:42;;;;;;;10.32;7.22;;;25.90;60.10;;;;;;5045645;28;20055;-61
2022/07/23 02:20:11;;;;;;;14.60;6.72;;;25.80;60.00;;;;;;5044860;28;20503;-61
2022/07/23 02:22:38;;;;;;;9.35;7.07;;;25.90;60.10;;;;;;5045378;28;20107;-62
2022/07/23 02:25:07;;;;;;;7.88;6.38;;;25.80;60.00;;;;;;5046535;28;20530;-62
2022/07/23 02:27:34;;;;;;;14.30;7.43;;;25.80;60.00;;;;;;5046598;28;20059;-61
2022/07/23 02:30:05;;;;;;;9.82;7.00;;;25.80;60.00;;;;;;5045066;28;20040;-62
2022/07/23 02:32:34;;;;;;;10.73;7.68;;;25.80;60.00;;;;;;5079138;28;20068;-61
2022/07/23 02:35:01;;;;;;;9.48;6.38;;;25.80;60.00;;;;;;5045087;28;20133;-61
2022/07/23 02:37:29;;;;;;;11.70;7.90;;;25.80;60.10;;;;;;5045254;28;20053;-61
2022/07/23 02:39:56;;;;;;;13.02;8.38;;;25.80;60.10;;;;;;5046778;28;20044;-60
2022/07/23 02:42:23;;;;;;;12.18;7.43;;;25.80;60.10;;;;;;5046501;28;20441;-61
2022/07/23 02:44:51;;;;;;;11.45;6.90;;;25.80;60.10;;;;;;5045155;28;20053;-62
2022/07/23 02:47:19;;;;;;;10.30;7.55;;;25.80;60.20;;;;;;5046847;28;20041;-62
2022/07/23 02:49:46;;;;;;;6.55;5.95;;;25.80;60.10;;;;;;5046532;28;20573;-62
2022/07/23 02:52:14;;;;;;;7.80;6.95;;;25.80;60.10;;;;;;5045027;28;20445;-62
2022/07/23 02:54:42;;;;;;;7.50;6.68;;;25.80;60.20;;;;;;5043934;28;20103;-61
2022/07/23 02:57:11;;;;;;;13.25;8.20;;;25.80;60.20;;;;;;5041833;28;20541;-61
2022/07/23 02:59:38;;;;;;;9.77;7.65;;;25.80;60.20;;;;;;5045007;28;20091;-61
2022/07/23 03:02:06;;;;;;;8.30;6.60;;;25.80;60.30;;;;;;5044741;28;20040;-61
2022/07/23 03:04:35;;;;;;;10.20;7.13;;;25.70;60.20;;;;;;5046173;28;20144;-61
2022/07/23 03:07:02;;;;;;;12.32;7.75;;;25.80;60.20;;;;;;5045206;28;20120;-62
2022/07/23 03:09:29;;;;;;;9.20;8.23;;;25.70;60.10;;;;;;5044625;28;20438;-61
2022/07/23 03:11:56;;;;;;;11.15;8.52;;;25.70;60.20;;;;;;5044952;28;20118;-62
2022/07/23 03:14:23;;;;;;;12.40;8.52;;;25.70;60.20;;;;;;5046559;28;20037;-63
2022/07/23 03:16:51;;;;;;;8.13;7.47;;;25.70;60.30;;;;;;5044702;28;20526;-63
2022/07/23 03:19:21;;;;;;;13.25;8.27;;;25.70;60.90;;;;;;5044928;28;20080;-63
2022/07/23 03:21:49;;;;;;;10.77;7.47;;;25.70;60.50;;;;;;5045967;28;20045;-62
2022/07/23 03:24:17;;;;;;;11.05;9.45;;;25.70;60.60;;;;;;5044279;28;20068;-62
2022/07/23 03:26:45;;;;;;;10.88;9.80;;;25.70;60.70;;;;;;5046463;28;20191;-62
2022/07/23 03:29:13;;;;;;;13.90;9.13;;;25.70;60.70;;;;;;5044972;28;20120;-62
2022/07/23 03:31:40;;;;;;;10.45;9.00;;;25.70;60.80;;;;;;5047177;28;20037;-63
2022/07/23 03:34:08;;;;;;;13.07;9.10;;;25.70;60.90;;;;;;5049681;28;20045;-63
2022/07/23 03:36:35;;;;;;;12.98;8.85;;;25.70;60.90;;;;;;5048278;28;20040;-63
2022/07/23 03:39:04;;;;;;;9.25;8.38;;;25.60;60.90;;;;;;5048055;28;20720;-63
2022/07/23 03:41:31;;;;;;;11.98;8.25;;;25.70;61.00;;;;;;5049746;28;20574;-63
2022/07/23 03:43:58;;;;;;;11.75;9.00;;;25.70;61.10;;;;;;5048392;28;20142;-63
2022/07/23 03:46:27;;;;;;;12.10;9.13;;;25.60;61.10;;;;;;5048276;28;20047;-63
2022/07/23 03:48:55;;;;;;;9.63;8.65;;;25.60;61.20;;;;;;5047601;28;20055;-63
2022/07/23 03:51:22;;;;;;;13.43;10.13;;;25.60;61.10;;;;;;5049592;28;20041;-63
2022/07/23 03:53:49;;;;;;;13.73;9.73;;;25.70;61.20;;;;;;5047845;28;20064;-63
2022/07/23 03:56:18;;;;;;;9.75;8.82;;;25.70;61.10;;;;;;5034702;28;20123;-63
2022/07/23 03:58:45;;;;;;;14.07;8.52;;;25.70;61.20;;;;;;5031302;28;20118;-62
2022/07/23 04:01:12;;;;;;;8.07;7.38;;;25.60;61.00;;;;;;5047493;28;20116;-62
2022/07/23 04:03:40;;;;;;;9.65;8.15;;;25.70;61.00;;;;;;5047744;28;20146;-62
2022/07/23 04:06:07;;;;;;;10.18;7.18;;;25.60;60.80;;;;;;5049198;28;20045;-62
2022/07/23 04:08:35;;;;;;;8.93;6.90;;;25.70;60.80;;;;;;5047426;28;20057;-63
2022/07/23 04:11:04;;;;;;;12.20;7.47;;;25.60;60.60;;;;;;5047935;28;20037;-63
2022/07/23 04:13:33;;;;;;;12.23;8.50;;;25.60;60.50;;;;;;5047584;28;20045;-63
2022/07/23 04:16:02;;;;;;;12.02;8.45;;;25.60;60.40;;;;;;5047727;28;20182;-62
2022/07/23 04:18:29;;;;;;;9.13;7.40;;;25.60;60.40;;;;;;5047693;28;20124;-62
2022/07/23 04:21:08;;;;;;;11.07;8.00;;;25.60;60.30;;;;;;5047755;28;20047;-63
2022/07/23 04:23:37;;;;;;;17.38;8.77;;;25.60;60.30;;;;;;5047104;28;20053;-63
2022/07/23 04:26:06;;;;;;;9.73;7.78;;;25.60;60.20;;;;;;5035885;28;20076;-63
2022/07/23 04:28:34;;;;;;;12.27;8.60;;;25.60;60.20;;;;;;5079734;28;20048;-62
2022/07/23 04:31:02;;;;;;;12.32;8.73;;;25.60;60.10;;;;;;5035724;28;20056;-63
2022/07/23 04:33:30;;;;;;;14.50;9.00;;;25.60;60.10;;;;;;5027676;28;20053;-61
2022/07/23 04:35:59;;;;;;;11.43;8.40;;;25.60;60.00;;;;;;5033372;28;20040;-62
2022/07/23 04:38:27;;;;;;;16.48;9.50;;;25.60;60.00;;;;;;5046590;28;20067;-61
2022/07/23 04:40:59;;;;;;;14.32;7.88;;;25.60;60.00;;;;;;5047077;28;20119;-61
2022/07/23 04:43:26;;;;;;;15.05;8.57;;;25.60;59.80;;;;;;5047052;28;20112;-62
2022/07/23 04:45:56;;;;;;;12.82;7.20;;;25.60;59.70;;;;;;5047380;28;20139;-61
2022/07/23 04:48:23;;;;;;;15.13;6.65;;;25.60;59.60;;;;;;5047303;28;20091;-62
2022/07/23 04:50:57;;;;;;;11.65;6.90;;;25.60;59.40;;;;;;5045381;28;20056;-62
2022/07/23 04:53:26;;;;;;;8.65;6.68;;;25.50;59.20;;;;;;5041566;28;20052;-62
2022/07/23 04:55:55;;;;;;;12.32;6.45;;;25.50;59.20;;;;;;5046454;28;20423;-62
2022/07/23 04:58:22;;;;;;;9.02;6.30;;;25.50;59.20;;;;;;5048116;28;20072;-62
2022/07/23 05:00:50;;;;;;;10.55;6.68;;;25.60;60.00;;;;;;5046577;28;20037;-62
2022/07/23 05:03:19;;;;;;;12.65;8.55;;;25.60;59.30;;;;;;5047683;28;20154;-62
2022/07/23 05:05:48;;;;;;;11.52;6.93;;;25.60;59.30;;;;;;5047612;28;20152;-60
2022/07/23 05:08:18;;;;;;;12.82;5.93;;;25.60;59.30;;;;;;5046140;28;20474;-61
2022/07/23 05:10:50;;;;;;;8.88;7.38;;;25.60;59.30;;;;;;5079710;28;20056;-60
2022/07/23 05:13:19;;;;;;;11.73;6.63;;;25.60;59.20;;;;;;5046284;28;20056;-61
2022/07/23 05:15:47;;;;;;;8.60;7.68;;;25.60;59.30;;;;;;5047967;28;20126;-61
2022/07/23 05:18:14;;;;;;;11.27;5.95;;;25.60;59.10;;;;;;5047897;28;20069;-61
2022/07/23 05:20:43;;;;;;;7.05;6.28;;;25.70;59.10;;;;;;5046348;28;20041;-61
2022/07/23 05:23:12;;;;;;;8.13;6.65;;;25.70;59.50;;;;;;5046203;28;20064;-60
2022/07/23 05:25:39;;;;;;;11.80;6.10;;;25.70;58.80;;;;;;5023249;28;20520;-61
2022/07/23 05:28:06;;;;;;;12.38;7.43;;;25.70;58.70;;;;;;5045999;28;20530;-61
2022/07/23 05:30:33;;;;;;;9.82;5.93;;;25.70;58.60;;;;;;5046390;28;20051;-61
2022/07/23 05:33:03;;;;;;;11.65;7.25;;;25.60;58.50;;;;;;5045972;28;20518;-62
2022/07/23 05:35:30;;;;;;;12.65;7.55;;;25.60;58.60;;;;;;5047321;28;20084;-61
2022/07/23 05:38:17;;;;;;;13.00;8.57;;;25.60;58.60;;;;;;5047157;28;20033;-62
2022/07/23 05:40:45;;;;;;;15.70;8.45;;;25.60;58.60;;;;;;5079539;28;20081;-62
2022/07/23 05:43:12;;;;;;;13.68;7.72;;;25.60;58.70;;;;;;5045629;28;20044;-61
2022/07/23 05:45:40;;;;;;;12.38;9.15;;;25.60;58.80;;;;;;5046308;28;20052;-62
2022/07/23 05:48:07;;;;;;;13.98;8.90;;;25.60;58.80;;;;;;5045556;28;20043;-61
2022/07/23 05:50:40;;;;;;;11.25;8.75;;;25.60;58.90;;;;;;5045463;28;20051;-62
2022/07/23 05:53:16;;;;;;;12.30;8.55;;;25.60;58.90;;;;;;5045198;28;20124;-62
2022/07/23 05:55:59;;;;;;;11.35;9.85;;;25.60;59.00;;;;;;5035429;28;20059;-62
2022/07/23 05:58:26;;;;;;;13.38;10.35;;;25.60;59.10;;;;;;5047214;28;20093;-62
2022/07/23 06:00:53;;;;;;;13.13;9.98;;;25.60;59.10;;;;;;5045743;28;20056;-62
2022/07/23 06:03:20;;;;;;;15.07;12.02;;;25.60;59.10;;;;;;5047051;28;20049;-62
2022/07/23 06:05:48;;;;;;;13.13;11.35;;;25.60;59.10;;;;;;5046942;28;20045;-62
2022/07/23 06:08:15;;;;;;;15.05;10.82;;;25.60;59.10;;;;;;5046771;28;20055;-63
2022/07/23 06:10:44;;;;;;;16.10;10.50;;;25.60;59.10;;;;;;5045795;28;20076;-61
2022/07/23 06:13:11;;;;;;;15.43;11.48;;;25.70;59.20;;;;;;5047108;28;20041;-62
2022/07/23 06:15:38;;;;;;;16.73;10.10;;;25.70;59.10;;;;;;5047004;28;20045;-63
2022/07/23 06:18:05;;;;;;;15.50;11.25;;;25.70;59.10;;;;;;5046488;28;20111;-62
2022/07/23 06:20:33;;;;;;;13.13;11.68;;;25.70;59.10;;;;;;5047175;28;20060;-63
2022/07/23 06:23:00;;;;;;;15.68;11.55;;;25.80;59.10;;;;;;5045771;28;20048;-63
2022/07/23 06:25:28;;;;;;;16.05;11.98;;;25.80;59.10;;;;;;5045046;28;20052;-62
2022/07/23 06:27:57;;;;;;;16.42;12.07;;;25.80;59.00;;;;;;5045458;28;20103;-61
2022/07/23 06:30:24;;;;;;;18.88;13.20;;;25.80;58.90;;;;;;5047129;28;20041;-61
2022/07/23 06:32:51;;;;;;;16.88;12.75;;;25.80;58.90;;;;;;5046655;28;20072;-59
2022/07/23 06:35:18;;;;;;;20.73;12.77;;;25.80;59.00;;;;;;5045353;28;20045;-62
2022/07/23 06:37:47;;;;;;;16.42;12.30;;;25.80;58.90;;;;;;5045337;28;20102;-61
2022/07/23 06:40:14;;;;;;;21.80;15.32;;;25.80;58.80;;;;;;5044554;28;20098;-62
2022/07/23 06:42:41;;;;;;;21.02;13.32;;;25.80;59.30;;;;;;5042471;28;20065;-62
2022/07/23 06:45:17;;;;;;;24.40;15.88;;;25.80;58.70;;;;;;5045160;28;20041;-61
2022/07/23 06:47:44;;;;;;;17.65;12.68;;;25.80;58.70;;;;;;5028344;28;20652;-61
2022/07/23 06:50:11;;;;;;;20.13;12.45;;;25.70;58.80;;;;;;5045510;28;20124;-63
2022/07/23 06:52:38;;;;;;;23.27;13.95;;;25.80;59.00;;;;;;5046843;28;20140;-63
2022/07/23 06:55:07;;;;;;;26.70;16.83;;;25.80;58.90;;;;;;5044515;28;20084;-61
2022/07/23 06:57:34;;;;;;;23.88;15.68;;;25.90;58.80;;;;;;5045452;28;20399;-64
2022/07/23 07:00:01;;;;;;;21.00;13.70;;;25.90;58.60;;;;;;5029676;28;20164;-61
2022/07/23 07:02:29;;;;;;;21.23;14.55;;;25.90;58.80;;;;;;5039299;28;20052;-62
2022/07/23 07:04:57;;;;;;;24.27;14.48;;;26.10;58.60;;;;;;5040239;28;20083;-63
2022/07/23 07:07:24;;;;;;;19.45;13.27;;;26.20;58.40;;;;;;5046146;28;20073;-66
2022/07/23 07:09:51;;;;;;;24.85;13.50;;;26.50;58.20;;;;;;5043724;28;20073;-64
2022/07/23 07:12:18;;;;;;;19.65;13.18;;;26.80;58.10;;;;;;5044578;28;20049;-65
2022/07/23 07:14:45;;;;;;;20.90;12.73;;;27.20;56.50;;;;;;5044536;28;20282;-64
2022/07/23 07:17:13;;;;;;;22.38;13.20;;;27.70;55.40;;;;;;5045197;28;20052;-64
2022/07/23 07:19:41;;;;;;;16.40;10.95;;;28.20;54.30;;;;;;5041128;28;20427;-64
2022/07/23 07:22:08;;;;;;;23.08;13.13;;;28.70;53.00;;;;;;5043998;28;20112;-64
2022/07/23 07:24:35;;;;;;;18.98;11.02;;;29.10;51.90;;;;;;5045156;28;20102;-64
2022/07/23 07:27:03;;;;;;;19.27;11.98;;;29.50;51.00;;;;;;5046131;28;20075;-72
2022/07/23 07:29:30;;;;;;;23.25;12.60;;;30.00;50.10;;;;;;5039651;28;20049;-62
2022/07/23 07:31:57;;;;;;;16.92;11.82;;;30.30;49.20;;;;;;5043822;28;20049;-61
2022/07/23 07:34:24;;;;;;;16.17;11.80;;;30.70;48.40;;;;;;5045403;28;20033;-64
2022/07/23 07:36:52;;;;;;;19.67;12.30;;;31.10;47.60;;;;;;5045710;28;20116;-62
2022/07/23 07:39:19;;;;;;;18.67;12.13;;;31.40;46.80;;;;;;5042494;28;20544;-66
2022/07/23 07:41:46;;;;;;;24.45;12.52;;;31.70;46.10;;;;;;5045288;28;20526;-63
2022/07/23 07:44:13;;;;;;;20.45;13.82;;;32.00;45.60;;;;;;5045250;28;20132;-65
2022/07/23 07:46:41;;;;;;;24.63;14.57;;;32.20;45.10;;;;;;5045334;28;20118;-63
2022/07/23 07:49:08;;;;;;;24.75;13.32;;;32.40;44.50;;;;;;5042023;28;20041;-62
2022/07/23 07:51:35;;;;;;;22.42;13.32;;;32.40;44.30;;;;;;5041572;28;20041;-61
2022/07/23 07:54:03;;;;;;;27.73;14.32;;;32.30;44.20;;;;;;5044056;28;20128;-61
2022/07/23 07:56:30;;;;;;;22.73;13.05;;;32.20;44.10;;;;;;5041446;28;20113;-62
2022/07/23 07:58:58;;;;;;;21.10;13.30;;;32.00;44.10;;;;;;5041467;28;20041;-67
2022/07/23 08:01:25;;;;;;;26.95;13.90;;;31.90;44.40;;;;;;5043205;28;20396;-60
2022/07/23 08:03:52;;;;;;;30.95;14.15;;;31.70;44.90;;;;;;5029307;28;20049;-58
2022/07/23 08:06:19;;;;;;;29.60;16.30;;;31.50;45.20;;;;;;5047976;28;20052;-60
2022/07/23 08:08:46;;;;;;;33.10;16.83;;;31.30;45.50;;;;;;5046287;28;20478;-53
2022/07/23 08:11:14;;;;;;;32.33;15.52;;;31.10;45.70;;;;;;5047910;28;20044;-58
2022/07/23 08:13:44;;;;;;;32.30;16.63;;;30.90;46.00;;;;;;5047624;28;20586;-60
2022/07/23 08:16:11;;;;;;;17.58;11.05;;;30.80;46.40;;;;;;5047075;28;20053;-48
2022/07/23 08:18:38;;;;;;;20.90;9.30;;;30.60;46.80;;;;;;5048541;28;20037;-51
2022/07/23 08:21:05;;;;;;;23.65;11.98;;;30.50;47.40;;;;;;5047766;28;20037;-53
2022/07/23 08:23:32;;;;;;;13.00;8.07;;;30.40;47.90;;;;;;5048622;28;20064;-50
2022/07/23 08:26:00;;;;;;;15.80;8.15;;;30.30;48.20;;;;;;5048940;28;20048;-53
2022/07/23 08:28:29;;;;;;;14.57;7.82;;;30.20;48.40;;;;;;5049058;28;20047;-52
2022/07/23 08:30:56;;;;;;;13.60;7.15;;;30.10;48.70;;;;;;5048879;28;20593;-53
2022/07/23 08:33:23;;;;;;;12.23;8.25;;;30.00;48.80;;;;;;5048930;28;20045;-53
2022/07/23 08:35:52;;;;;;;10.25;7.30;;;29.90;49.00;;;;;;5048731;28;20052;-54
2022/07/23 08:38:21;;;;;;;14.15;7.80;;;29.90;49.20;;;;;;5048779;28;20044;-53
2022/07/23 08:40:50;;;;;;;14.18;6.60;;;29.80;49.30;;;;;;5047778;28;20422;-53
2022/07/23 08:43:19;;;;;;;11.73;7.22;;;29.70;49.50;;;;;;5040412;28;20155;-53
2022/07/23 08:45:50;;;;;;;10.60;6.40;;;29.70;49.60;;;;;;5048586;28;20072;-53
2022/07/23 08:48:19;;;;;;;9.63;6.47;;;29.60;49.70;;;;;;5048576;28;20069;-52
2022/07/23 08:50:47;;;;;;;9.52;5.97;;;29.60;49.80;;;;;;5048399;28;20055;-53
2022/07/23 08:53:16;;;;;;;10.70;5.13;;;29.50;49.90;;;;;;5048515;28;20037;-53
2022/07/23 08:55:45;;;;;;;6.47;5.18;;;29.50;50.00;;;;;;5040517;28;20103;-53
2022/07/23 08:58:13;;;;;;;10.23;6.22;;;29.40;50.00;;;;;;5047478;28;20045;-52
2022/07/23 09:00:40;;;;;;;7.28;5.80;;;29.40;50.20;;;;;;5048489;28;20402;-51
2022/07/23 09:03:13;;;;;;;11.68;6.70;;;29.30;50.20;;;;;;5048171;28;20578;-51
2022/07/23 09:05:40;;;;;;;7.18;5.82;;;29.20;50.30;;;;;;5048492;28;20087;-51
2022/07/23 09:08:12;;;;;;;6.70;5.38;;;29.20;50.30;;;;;;5047983;28;20135;-50
2022/07/23 09:10:52;;;;;;;9.40;6.78;;;29.20;50.40;;;;;;5042667;28;20490;-51
2022/07/23 09:13:30;;;;;;;9.32;5.35;;;29.20;50.60;;;;;;5047711;28;20061;-49
2022/07/23 09:15:59;;;;;;;9.57;6.65;;;29.10;50.50;;;;;;5047983;28;20140;-53
2022/07/23 09:18:33;;;;;;;6.93;5.35;;;29.00;50.60;;;;;;5048297;28;20047;-52
2022/07/23 09:21:11;;;;;;;9.75;6.63;;;29.00;50.70;;;;;;5048503;28;20049;-53
2022/07/23 09:23:39;;;;;;;9.57;5.80;;;29.00;50.70;;;;;;5047935;28;20065;-52
2022/07/23 09:26:22;;;;;;;7.95;5.60;;;28.90;50.70;;;;;;5047775;28;20892;-53
2022/07/23 09:28:55;;;;;;;6.18;5.45;;;28.90;51.30;;;;;;5045841;28;20048;-52
2022/07/23 09:31:24;;;;;;;6.20;5.53;;;28.90;50.80;;;;;;5048278;28;20045;-52
2022/07/23 09:33:52;;;;;;;6.57;5.50;;;28.80;50.70;;;;;;5048338;28;20077;-48
2022/07/23 09:36:29;;;;;;;8.05;6.25;;;28.80;50.70;;;;;;5048130;28;20052;-53
2022/07/23 09:38:56;;;;;;;8.23;6.00;;;28.80;50.70;;;;;;5047701;28;20055;-52
2022/07/23 09:41:24;;;;;;;7.38;5.68;;;28.80;50.70;;;;;;5047713;28;20033;-51
2022/07/23 09:43:57;;;;;;;7.90;6.05;;;28.80;50.70;;;;;;5047643;28;20098;-50
2022/07/23 09:46:25;;;;;;;7.35;6.10;;;28.80;50.70;;;;;;5048074;28;20132;-52
2022/07/23 09:48:56;;;;;;;9.23;6.32;;;28.70;50.60;;;;;;5047821;28;20051;-53
2022/07/23 09:51:27;;;;;;;7.93;5.70;;;28.70;50.60;;;;;;5047775;28;20098;-50
2022/07/23 09:53:54;;;;;;;5.72;4.85;;;28.70;50.70;;;;;;5047447;28;20037;-52
2022/07/23 09:56:22;;;;;;;6.65;6.10;;;28.70;50.70;;;;;;5047357;28;20170;-50
2022/07/23 09:58:52;;;;;;;8.57;5.35;;;28.70;50.80;;;;;;5046152;28;20033;-49
2022/07/23 10:01:21;;;;;;;6.97;5.43;;;28.70;50.90;;;;;;5047107;28;20364;-48
2022/07/23 10:03:48;;;;;;;7.45;5.72;;;28.70;50.90;;;;;;5047570;28;20118;-51
2022/07/23 10:06:47;;;;;;;12.10;5.80;;;28.70;50.90;;;;;;5034145;28;20057;-48
2022/07/23 10:09:53;;;;;;;7.28;6.10;;;28.70;51.10;;;;;;5025001;28;20050;-52
2022/07/23 10:12:46;;;;;;;7.45;5.78;;;28.70;51.20;;;;;;5021890;28;20167;-51
2022/07/23 10:15:13;;;;;;;7.95;6.90;;;28.70;51.20;;;;;;5022821;28;20154;-51
2022/07/23 10:17:40;;;;;;;8.77;5.97;;;28.70;51.10;;;;;;5024431;28;20144;-49
2022/07/23 10:20:08;;;;;;;10.63;6.28;;;28.70;51.20;;;;;;5024761;28;20119;-50
2022/07/23 10:22:39;;;;;;;8.27;6.53;;;28.70;51.90;;;;;;5024775;28;20048;-51
2022/07/23 10:25:15;;;;;;;11.68;6.15;;;28.70;51.30;;;;;;5024523;28;20151;-50
2022/07/23 10:28:07;;;;;;;7.57;6.65;;;28.70;51.40;;;;;;5024862;28;20519;-50
2022/07/23 10:30:42;;;;;;;9.98;7.03;;;28.70;51.30;;;;;;5019782;28;20622;-52
2022/07/23 10:33:28;;;;;;;5.57;5.18;;;28.70;51.40;;;;;;5024539;28;20053;-49
2022/07/23 10:35:59;;;;;;;;;;;28.70;51.50;;;;;;5025222;28;20099;-54
2022/07/23 10:38:31;;;;;;;5.25;4.75;;;28.60;51.40;;;;;;5018035;28;20016;-54
2022/07/23 10:41:00;;;;;;;5.72;4.78;;;28.60;51.70;;;;;;5028889;28;20048;-52
2022/07/23 10:43:28;;;;;;;6.13;4.90;;;28.60;51.70;;;;;;5042910;28;20047;-52
2022/07/23 10:45:56;;;;;;;6.68;4.68;;;28.60;51.70;;;;;;5044898;28;20049;-49
2022/07/23 10:48:26;;;;;;;6.13;5.10;;;28.70;51.80;;;;;;5044490;28;20037;-49
2022/07/23 10:51:10;;;;;;;5.97;4.90;;;28.70;51.80;;;;;;5050777;28;20115;-49
2022/07/23 10:53:59;;;;;;;5.93;5.40;;;28.70;51.70;;;;;;5050828;28;20068;-49
2022/07/23 10:57:05;;;;;;;5.65;5.10;;;28.70;51.60;;;;;;5049579;28;20037;-52
2022/07/23 10:59:32;;;;;;;7.30;5.47;;;28.70;51.60;;;;;;5051001;28;20041;-50
2022/07/23 11:02:25;;;;;;;5.65;5.18;;;28.70;51.70;;;;;;5050979;28;20056;-50
2022/07/23 11:04:54;;;;;;;5.75;5.25;;;28.70;51.60;;;;;;5050614;28;20840;-51
2022/07/23 11:07:21;;;;;;;6.45;4.80;;;28.70;51.70;;;;;;5050954;28;20041;-52
2022/07/23 11:09:49;;;;;;;5.18;4.78;;;28.70;51.70;;;;;;5050416;28;20112;-52
2022/07/23 11:12:38;;;;;;;5.70;4.60;;;28.80;51.70;;;;;;5049494;28;20060;-53
2022/07/23 11:15:09;;;;;;;5.40;4.57;;;28.80;51.60;;;;;;5050534;28;20098;-51
2022/07/23 11:17:37;;;;;;;6.65;5.22;;;28.70;51.50;;;;;;5050332;28;20171;-50
2022/07/23 11:20:17;;;;;;;7.47;5.35;;;28.80;51.60;;;;;;5046818;28;20522;-50
2022/07/23 11:22:50;;;;;;;5.43;4.93;;;28.80;51.50;;;;;;5048749;28;20041;-53
2022/07/23 11:25:33;;;;;;;5.13;4.63;;;28.80;51.50;;;;;;5043189;28;20084;-52
2022/07/23 11:28:25;;;;;;;5.78;5.18;;;28.80;51.40;;;;;;5045343;28;20080;-51
2022/07/23 11:30:52;;;;;;;6.47;4.70;;;28.80;51.40;;;;;;5048451;28;20055;-51
2022/07/23 11:33:21;;;;;;;7.20;5.38;;;28.80;51.50;;;;;;5050248;28;20036;-51
2022/07/23 11:36:00;;;;;;;7.38;5.55;;;28.80;51.40;;;;;;5049875;28;20053;-53
2022/07/23 11:38:27;;;;;;;5.93;5.32;;;28.80;51.40;;;;;;5050120;28;20068;-51
2022/07/23 11:40:57;;;;;;;6.78;5.30;;;28.80;51.40;;;;;;5050006;28;20131;-51
2022/07/23 11:43:25;;;;;;;6.50;5.35;;;28.90;51.40;;;;;;5050175;28;20069;-53
2022/07/23 11:45:54;;;;;;;6.55;5.72;;;28.80;51.30;;;;;;5050085;28;20140;-52
2022/07/23 11:48:23;;;;;;;5.35;4.85;;;28.80;51.30;;;;;;5049987;28;20065;-52
2022/07/23 11:50:51;;;;;;;5.47;4.97;;;28.90;51.30;;;;;;5061017;28;20128;-52
2022/07/23 11:53:26;;;;;;;5.82;5.22;;;28.90;51.30;;;;;;5042779;28;20056;-51
2022/07/23 11:55:55;;;;;;;6.32;5.13;;;28.90;51.30;;;;;;5047396;28;20071;-50
2022/07/23 11:58:22;;;;;;;5.95;5.07;;;28.90;51.20;;;;;;5049990;28;20037;-50
2022/07/23 12:00:50;;;;;;;5.50;4.90;;;28.90;51.20;;;;;;5049735;28;20045;-51
2022/07/23 12:03:17;;;;;;;5.35;4.85;;;28.90;51.20;;;;;;5049663;28;20045;-50
2022/07/23 12:05:44;;;;;;;5.63;4.63;;;28.90;51.20;;;;;;5049676;28;20083;-49
2022/07/23 12:08:11;;;;;;;5.70;4.75;;;28.90;51.20;;;;;;5049359;28;20079;-51
2022/07/23 12:10:41;;;;;;;6.38;5.88;;;28.90;51.10;;;;;;5049216;28;20048;-51
2022/07/23 12:13:11;;;;;;;5.80;5.18;;;28.90;51.10;;;;;;5049480;28;20479;-51
2022/07/23 12:15:41;;;;;;;5.32;4.55;;;28.90;51.10;;;;;;5049303;28;20143;-53
2022/07/23 12:18:10;;;;;;;5.95;5.07;;;28.90;51.00;;;;;;5049113;28;20080;-50
2022/07/23 12:20:40;;;;;;;5.13;4.70;;;29.00;51.10;;;;;;5048988;28;20396;-52
2022/07/23 12:23:08;;;;;;;6.22;5.68;;;29.00;51.70;;;;;;5049448;28;20045;-51
2022/07/23 12:25:37;;;;;;;4.85;4.45;;;29.00;51.10;;;;;;5048986;28;20491;-50
2022/07/23 12:28:06;;;;;;;6.35;5.75;;;29.00;51.10;;;;;;5049573;28;20103;-53
2022/07/23 12:30:38;;;;;;;4.50;4.18;;;29.10;51.10;;;;;;5049328;28;20581;-51
2022/07/23 12:33:06;;;;;;;5.25;4.93;;;29.10;51.10;;;;;;5048997;28;20080;-51
2022/07/23 12:35:37;;;;;;;5.57;4.88;;;29.10;51.10;;;;;;5047119;28;20525;-52
2022/07/23 12:38:06;;;;;;;4.50;4.10;;;29.10;51.00;;;;;;5048689;28;20045;-51
2022/07/23 12:40:36;;;;;;;5.10;4.57;;;29.10;51.00;;;;;;5048851;28;20043;-50
2022/07/23 12:43:05;;;;;;;5.15;4.68;;;29.10;50.90;;;;;;5049103;28;20076;-53
2022/07/23 12:45:46;;;;;;;5.18;4.78;;;29.20;51.00;;;;;;5048689;28;20048;-51
2022/07/23 12:48:24;;;;;;;5.30;4.80;;;29.20;50.90;;;;;;5048809;28;20061;-51
2022/07/23 12:50:54;;;;;;;5.47;4.40;;;29.20;50.90;;;;;;5048409;28;20160;-52